createdAt,value
2019-05-18T00:00:44.439Z,0
2019-05-18T00:01:44.427Z,0
2019-05-18T00:02:43.921Z,0
2019-05-18T00:03:44.398Z,0
2019-05-18T00:04:44.542Z,0
2019-05-18T00:05:44.385Z,0
2019-05-18T00:06:44.383Z,0
2019-05-18T00:07:43.879Z,0
2019-05-18T00:08:44.362Z,0
2019-05-18T00:09:44.369Z,0
2019-05-18T00:10:44.374Z,0
2019-05-18T00:11:44.338Z,0
2019-05-18T00:12:44.153Z,0
2019-05-18T00:13:44.322Z,0
2019-05-18T00:14:44.314Z,0
2019-05-18T00:15:44.305Z,0
2019-05-18T00:16:44.293Z,0
2019-05-18T00:17:44.111Z,0
2019-05-18T00:18:44.284Z,0
2019-05-18T00:19:44.283Z,0
2019-05-18T00:20:44.263Z,0
2019-05-18T00:21:44.261Z,0
2019-05-18T00:22:44.200Z,0
2019-05-18T00:23:43.988Z,0
2019-05-18T00:24:44.260Z,0
2019-05-18T00:25:44.216Z,0
2019-05-18T00:26:44.224Z,0
2019-05-18T00:27:43.709Z,0
2019-05-18T00:28:44.207Z,0
2019-05-18T00:29:44.180Z,0
2019-05-18T00:30:44.261Z,0
2019-05-18T00:31:44.225Z,0
2019-05-18T00:32:43.786Z,0
2019-05-18T00:33:44.266Z,0
2019-05-18T00:34:44.152Z,0
2019-05-18T00:35:44.138Z,0
2019-05-18T00:36:44.130Z,0
2019-05-18T00:37:43.667Z,0
2019-05-18T00:38:44.133Z,0
2019-05-18T00:39:44.120Z,0
2019-05-18T00:40:44.108Z,0
2019-05-18T00:41:45.511Z,0
2019-05-18T00:42:43.899Z,0
2019-05-18T00:43:43.820Z,0
2019-05-18T00:44:44.097Z,0
2019-05-18T00:45:44.050Z,0
2019-05-18T00:46:44.053Z,0
2019-05-18T00:47:50.495Z,0
2019-05-18T00:48:44.022Z,0
2019-05-18T00:49:44.029Z,0
2019-05-18T00:50:44.076Z,0
2019-05-18T00:51:44.025Z,0
2019-05-18T00:52:43.770Z,0
2019-05-18T00:53:43.973Z,0
2019-05-18T00:54:43.973Z,0
2019-05-18T00:55:44.029Z,0
2019-05-18T00:56:43.960Z,0
2019-05-18T00:57:43.716Z,0
2019-05-18T00:58:43.944Z,0
2019-05-18T00:59:43.923Z,0
2019-05-18T01:00:43.931Z,0
2019-05-18T01:01:43.980Z,0
2019-05-18T01:02:43.676Z,0
2019-05-18T01:03:43.901Z,0
2019-05-18T01:05:47.483Z,0
2019-05-18T01:06:43.868Z,0
2019-05-18T01:07:43.622Z,0
2019-05-18T01:08:43.606Z,0
2019-05-18T01:09:43.889Z,0
2019-05-18T01:10:43.831Z,0
2019-05-18T01:11:43.822Z,0
2019-05-18T01:12:43.570Z,0
2019-05-18T01:13:43.559Z,0
2019-05-18T01:14:43.840Z,0
2019-05-18T01:15:43.788Z,0
2019-05-18T01:16:43.780Z,0
2019-05-18T01:18:01.913Z,0
2019-05-18T01:18:43.759Z,0
2019-05-18T01:19:43.777Z,0
2019-05-18T01:20:43.753Z,0
2019-05-18T01:21:43.730Z,0
2019-05-18T01:22:43.498Z,0
2019-05-18T01:23:43.714Z,0
2019-05-18T01:24:43.744Z,0
2019-05-18T01:25:43.715Z,0
2019-05-18T01:26:43.688Z,0
2019-05-18T01:27:43.485Z,0
2019-05-18T01:28:43.667Z,0
2019-05-18T01:29:43.438Z,0
2019-05-18T01:30:43.651Z,0
2019-05-18T01:31:43.641Z,0
2019-05-18T01:32:43.394Z,0
2019-05-18T01:33:43.625Z,0
2019-05-18T01:34:43.625Z,0
2019-05-18T01:35:43.607Z,0
2019-05-18T01:36:43.598Z,0
2019-05-18T01:37:43.590Z,0
2019-05-18T01:38:43.579Z,0
2019-05-18T01:39:43.572Z,0
2019-05-18T01:40:43.571Z,0
2019-05-18T01:41:50.623Z,0
2019-05-18T01:42:43.544Z,0
2019-05-18T01:43:43.546Z,0
2019-05-18T01:44:43.563Z,0
2019-05-18T01:45:43.518Z,0
2019-05-18T01:46:43.505Z,0
2019-05-18T01:47:43.516Z,0
2019-05-18T01:48:43.486Z,0
2019-05-18T01:49:43.571Z,0
2019-05-18T01:50:43.468Z,0
2019-05-18T01:51:43.490Z,0
2019-05-18T01:52:43.458Z,0
2019-05-18T01:53:43.450Z,0
2019-05-18T01:54:43.435Z,0
2019-05-18T01:55:43.434Z,0
2019-05-18T01:56:43.429Z,0
2019-05-18T01:57:43.168Z,0
2019-05-18T01:58:43.399Z,0
2019-05-18T01:59:43.392Z,0
2019-05-18T02:00:43.194Z,0
2019-05-18T02:01:43.374Z,0
2019-05-18T02:02:43.436Z,0
2019-05-18T02:03:43.371Z,0
2019-05-18T02:05:02.583Z,0
2019-05-18T02:05:43.371Z,0
2019-05-18T02:06:43.335Z,0
2019-05-18T02:07:43.325Z,0
2019-05-18T02:08:43.308Z,0
2019-05-18T02:09:43.300Z,0
2019-05-18T02:10:43.052Z,0
2019-05-18T02:11:43.293Z,0
2019-05-18T02:12:42.784Z,0
2019-05-18T02:13:43.259Z,0
2019-05-18T02:14:43.256Z,0
2019-05-18T02:15:43.256Z,0
2019-05-18T02:16:43.263Z,0
2019-05-18T02:17:42.748Z,0
2019-05-18T02:18:43.223Z,0
2019-05-18T02:19:43.212Z,0
2019-05-18T02:20:43.204Z,0
2019-05-18T02:21:43.196Z,0
2019-05-18T02:22:42.971Z,0
2019-05-18T02:23:43.170Z,0
2019-05-18T02:24:43.165Z,0
2019-05-18T02:25:43.157Z,0
2019-05-18T02:26:42.906Z,0
2019-05-18T02:27:43.140Z,0
2019-05-18T02:28:43.135Z,0
2019-05-18T02:29:43.128Z,0
2019-05-18T02:30:43.123Z,0
2019-05-18T02:31:43.156Z,0
2019-05-18T02:32:42.622Z,0
2019-05-18T02:33:43.107Z,0
2019-05-18T02:34:43.154Z,0
2019-05-18T02:37:42.864Z,0
2019-05-18T02:38:42.808Z,0
2019-05-18T02:39:43.038Z,0
2019-05-18T02:40:43.023Z,0
2019-05-18T02:41:43.074Z,0
2019-05-18T02:42:42.558Z,0
2019-05-18T02:43:43.001Z,0
2019-05-18T02:44:43.144Z,0
2019-05-18T02:45:42.998Z,0
2019-05-18T02:46:43.002Z,0
2019-05-18T02:47:42.487Z,0
2019-05-18T02:48:57.878Z,0
2019-05-18T02:49:42.940Z,0
2019-05-18T02:50:55.710Z,0
2019-05-18T02:51:42.686Z,0
2019-05-18T02:52:42.701Z,0
2019-05-18T02:53:42.905Z,0
2019-05-18T02:54:42.912Z,0
2019-05-18T02:55:42.889Z,0
2019-05-18T02:56:42.877Z,5
2019-05-18T02:57:42.869Z,5
2019-05-18T02:58:42.844Z,5
2019-05-18T02:59:42.859Z,5
2019-05-18T03:00:42.856Z,5
2019-05-18T03:01:42.831Z,5
2019-05-18T03:02:42.577Z,5
2019-05-18T03:03:42.590Z,5
2019-05-18T03:04:42.928Z,5
2019-05-18T03:05:42.791Z,10
2019-05-18T03:06:42.783Z,10
2019-05-18T03:07:55.267Z,10
2019-05-18T03:08:42.746Z,10
2019-05-18T03:09:42.753Z,10
2019-05-18T03:10:42.755Z,15
2019-05-18T03:11:42.723Z,15
2019-05-18T03:12:42.827Z,15
2019-05-18T03:13:42.720Z,15
2019-05-18T03:14:42.471Z,15
2019-05-18T03:15:42.725Z,20
2019-05-18T03:16:42.719Z,20
2019-05-18T03:17:42.483Z,20
2019-05-18T03:18:42.683Z,25
2019-05-18T03:19:42.664Z,25
2019-05-18T03:20:42.672Z,25
2019-05-18T03:21:42.644Z,30
2019-05-18T03:22:42.634Z,30
2019-05-18T03:23:42.610Z,30
2019-05-18T03:24:42.608Z,35
2019-05-18T03:25:42.615Z,35
2019-05-18T03:28:42.609Z,45
2019-05-18T03:29:42.558Z,50
2019-05-18T03:30:42.631Z,50
2019-05-18T03:31:42.629Z,50
2019-05-18T03:32:42.570Z,50
2019-05-18T03:33:42.567Z,55
2019-05-18T03:34:42.551Z,55
2019-05-18T03:35:42.625Z,55
2019-05-18T03:36:42.500Z,60
2019-05-18T03:37:42.536Z,60
2019-05-18T03:38:42.551Z,65
2019-05-18T03:39:46.744Z,70
2019-05-18T03:40:42.475Z,70
2019-05-18T03:41:42.461Z,75
2019-05-18T03:42:42.459Z,80
2019-05-18T03:43:42.426Z,80
2019-05-18T03:44:42.421Z,90
2019-05-18T03:45:42.178Z,95
2019-05-18T03:46:42.449Z,100
2019-05-18T03:47:42.397Z,105
2019-05-18T03:48:42.377Z,110
2019-05-18T03:49:42.368Z,110
2019-05-18T03:50:42.569Z,115
2019-05-18T03:51:42.367Z,120
2019-05-18T03:52:42.390Z,120
2019-05-18T03:53:42.346Z,130
2019-05-18T03:54:42.336Z,135
2019-05-18T03:55:42.331Z,135
2019-05-18T03:56:42.327Z,140
2019-05-18T03:57:42.389Z,145
2019-05-18T03:58:42.292Z,155
2019-05-18T03:59:42.317Z,155
2019-05-18T04:00:42.288Z,160
2019-05-18T04:01:42.279Z,160
2019-05-18T04:02:42.319Z,165
2019-05-18T04:03:42.280Z,175
2019-05-18T04:04:42.255Z,180
2019-05-18T04:05:42.019Z,185
2019-05-18T04:06:42.234Z,190
2019-05-18T04:07:42.266Z,195
2019-05-18T04:08:42.256Z,200
2019-05-18T04:09:42.229Z,200
2019-05-18T04:10:42.001Z,200
2019-05-18T04:11:41.971Z,205
2019-05-18T04:12:42.228Z,210
2019-05-18T04:13:42.253Z,210
2019-05-18T04:14:42.240Z,215
2019-05-18T04:15:42.233Z,215
2019-05-18T04:16:42.185Z,215
2019-05-18T04:17:42.281Z,200
2019-05-18T04:18:42.165Z,185
2019-05-18T04:19:55.675Z,165
2019-05-18T04:20:42.170Z,165
2019-05-18T04:21:42.759Z,175
2019-05-18T04:22:42.205Z,170
2019-05-18T04:23:42.154Z,170
2019-05-18T04:24:42.155Z,175
2019-05-18T04:25:46.246Z,155
2019-05-18T04:26:42.137Z,145
2019-05-18T04:27:42.127Z,155
2019-05-18T04:28:42.141Z,175
2019-05-18T04:29:42.125Z,195
2019-05-18T04:30:42.127Z,205
2019-05-18T04:31:42.347Z,215
2019-05-18T04:32:42.140Z,230
2019-05-18T04:33:42.140Z,240
2019-05-18T04:34:42.137Z,255
2019-05-18T04:35:42.113Z,275
2019-05-18T04:36:42.222Z,300
2019-05-18T04:37:42.112Z,330
2019-05-18T04:38:42.083Z,360
2019-05-18T04:39:42.118Z,370
2019-05-18T04:40:43.363Z,380
2019-05-18T04:41:42.149Z,390
2019-05-18T04:42:41.860Z,395
2019-05-18T04:43:42.084Z,410
2019-05-18T04:44:41.829Z,415
2019-05-18T04:45:42.200Z,425
2019-05-18T04:46:42.077Z,435
2019-05-18T04:47:41.823Z,440
2019-05-18T04:48:42.102Z,450
2019-05-18T04:49:44.355Z,450
2019-05-18T04:50:42.060Z,450
2019-05-18T04:51:42.078Z,440
2019-05-18T04:52:42.097Z,435
2019-05-18T04:53:42.054Z,470
2019-05-18T04:54:42.081Z,500
2019-05-18T04:55:42.066Z,505
2019-05-18T04:56:45.361Z,500
2019-05-18T04:57:42.077Z,495
2019-05-18T04:58:42.093Z,505
2019-05-18T04:59:42.055Z,520
2019-05-18T05:00:42.081Z,530
2019-05-18T05:01:42.122Z,540
2019-05-18T05:02:42.084Z,550
2019-05-18T05:03:42.089Z,565
2019-05-18T05:04:42.069Z,575
2019-05-18T05:05:42.079Z,590
2019-05-18T05:06:42.066Z,600
2019-05-18T05:07:42.079Z,605
2019-05-18T05:08:42.138Z,620
2019-05-18T05:09:44.621Z,610
2019-05-18T05:10:42.068Z,615
2019-05-18T05:11:42.077Z,620
2019-05-18T05:12:42.077Z,615
2019-05-18T05:13:42.087Z,615
2019-05-18T05:14:42.094Z,620
2019-05-18T05:15:42.107Z,625
2019-05-18T05:16:42.105Z,630
2019-05-18T05:17:42.139Z,640
2019-05-18T05:18:42.146Z,640
2019-05-18T05:19:42.108Z,655
2019-05-18T05:20:41.876Z,665
2019-05-18T05:21:42.122Z,675
2019-05-18T05:22:42.131Z,695
2019-05-18T05:23:42.136Z,700
2019-05-18T05:24:42.140Z,715
2019-05-18T05:25:42.143Z,735
2019-05-18T05:26:44.333Z,765
2019-05-18T05:27:42.189Z,800
2019-05-18T05:28:41.917Z,820
2019-05-18T05:29:42.161Z,830
2019-05-18T05:30:42.180Z,835
2019-05-18T05:31:42.181Z,850
2019-05-18T05:32:42.199Z,855
2019-05-18T05:33:42.278Z,880
2019-05-18T05:34:42.207Z,885
2019-05-18T05:35:44.859Z,900
2019-05-18T05:36:41.963Z,905
2019-05-18T05:37:42.230Z,915
2019-05-18T05:38:42.258Z,915
2019-05-18T05:39:42.231Z,905
2019-05-18T05:40:42.242Z,915
2019-05-18T05:41:42.253Z,915
2019-05-18T05:42:42.274Z,925
2019-05-18T05:43:42.020Z,950
2019-05-18T05:44:42.032Z,965
2019-05-18T05:45:42.281Z,985
2019-05-18T05:46:44.506Z,1015
2019-05-18T05:47:42.298Z,1030
2019-05-18T05:48:42.297Z,1030
2019-05-18T05:49:42.301Z,1040
2019-05-18T05:50:45.617Z,1040
2019-05-18T05:51:42.078Z,1040
2019-05-18T05:52:42.439Z,1050
2019-05-18T05:53:42.346Z,1055
2019-05-18T05:54:42.354Z,1065
2019-05-18T05:55:42.361Z,1075
2019-05-18T05:56:42.368Z,1085
2019-05-18T05:57:43.403Z,1100
2019-05-18T05:58:42.392Z,1105
2019-05-18T05:59:42.428Z,1100
2019-05-18T06:00:42.404Z,1095
2019-05-18T06:01:42.423Z,1105
2019-05-18T06:02:42.420Z,1120
2019-05-18T06:03:42.425Z,1140
2019-05-18T06:04:42.434Z,1165
2019-05-18T06:05:42.477Z,1190
2019-05-18T06:06:42.456Z,1200
2019-05-18T06:07:42.464Z,1200
2019-05-18T06:08:42.472Z,1210
2019-05-18T06:09:42.489Z,1225
2019-05-18T06:10:42.507Z,1235
2019-05-18T06:11:42.492Z,1235
2019-05-18T06:12:42.506Z,1230
2019-05-18T06:13:42.524Z,1240
2019-05-18T06:14:42.299Z,1255
2019-05-18T06:15:42.529Z,1300
2019-05-18T06:16:42.553Z,1320
2019-05-18T06:17:42.573Z,1320
2019-05-18T06:18:42.598Z,1350
2019-05-18T06:19:42.578Z,1340
2019-05-18T06:20:57.503Z,1370
2019-05-18T06:21:42.351Z,1375
2019-05-18T06:22:42.607Z,1385
2019-05-18T06:23:42.638Z,1400
2019-05-18T06:24:42.648Z,1390
2019-05-18T06:25:43.913Z,1400
2019-05-18T06:26:42.647Z,1405
2019-05-18T06:27:42.752Z,1415
2019-05-18T06:28:42.666Z,1435
2019-05-18T06:29:42.676Z,1455
2019-05-18T06:30:42.689Z,1480
2019-05-18T06:31:42.723Z,1490
2019-05-18T06:32:42.717Z,1480
2019-05-18T06:33:42.727Z,1485
2019-05-18T06:34:42.728Z,1465
2019-05-18T06:35:42.754Z,1475
2019-05-18T06:36:42.755Z,1480
2019-05-18T06:37:42.770Z,1515
2019-05-18T06:38:42.777Z,1540
2019-05-18T06:39:42.788Z,1550
2019-05-18T06:40:42.798Z,1570
2019-05-18T06:41:42.864Z,1595
2019-05-18T06:42:42.933Z,1620
2019-05-18T06:43:42.842Z,1645
2019-05-18T06:44:42.849Z,1660
2019-05-18T06:45:42.914Z,1665
2019-05-18T06:46:42.875Z,1660
2019-05-18T06:47:42.939Z,1665
2019-05-18T06:48:45.557Z,1670
2019-05-18T06:49:42.969Z,1670
2019-05-18T06:50:42.927Z,1680
2019-05-18T06:51:42.932Z,1685
2019-05-18T06:52:42.981Z,1710
2019-05-18T06:53:42.960Z,1745
2019-05-18T06:54:42.969Z,1740
2019-05-18T06:55:42.987Z,1760
2019-05-18T06:56:43.049Z,1780
2019-05-18T06:57:43.015Z,1780
2019-05-18T06:58:43.014Z,1780
2019-05-18T06:59:43.072Z,1775
2019-05-18T07:00:43.042Z,1800
2019-05-18T07:01:43.072Z,1815
2019-05-18T07:02:43.081Z,1845
2019-05-18T07:03:45.007Z,1860
2019-05-18T07:04:44.634Z,1870
2019-05-18T07:05:43.114Z,1875
2019-05-18T07:06:43.124Z,1880
2019-05-18T07:07:42.887Z,1920
2019-05-18T07:08:43.145Z,1930
2019-05-18T07:09:43.164Z,1940
2019-05-18T07:10:43.209Z,1955
2019-05-18T07:11:42.948Z,1955
2019-05-18T07:12:42.957Z,1960
2019-05-18T07:13:43.216Z,1950
2019-05-18T07:14:43.234Z,1905
2019-05-18T07:15:43.272Z,1880
2019-05-18T07:16:43.455Z,1885
2019-05-18T07:17:43.916Z,1860
2019-05-18T07:18:43.293Z,1870
2019-05-18T07:19:43.319Z,1880
2019-05-18T07:20:43.315Z,1915
2019-05-18T07:21:43.323Z,1930
2019-05-18T07:22:43.352Z,1980
2019-05-18T07:23:46.291Z,1975
2019-05-18T07:24:43.382Z,1975
2019-05-18T07:25:43.398Z,1970
2019-05-18T07:26:43.422Z,1975
2019-05-18T07:27:43.468Z,1980
2019-05-18T07:28:43.423Z,2005
2019-05-18T07:29:43.455Z,2025
2019-05-18T07:30:43.479Z,2045
2019-05-18T07:31:43.468Z,2070
2019-05-18T07:32:43.254Z,2040
2019-05-18T07:33:43.497Z,1980
2019-05-18T07:34:43.522Z,1825
2019-05-18T07:35:43.525Z,1715
2019-05-18T07:36:43.551Z,1710
2019-05-18T07:37:43.612Z,1735
2019-05-18T07:38:43.569Z,1755
2019-05-18T07:39:45.553Z,1800
2019-05-18T07:40:43.608Z,1820
2019-05-18T07:41:55.671Z,1820
2019-05-18T07:42:43.383Z,1850
2019-05-18T07:43:43.647Z,1905
2019-05-18T07:44:43.659Z,1955
2019-05-18T07:45:43.684Z,1980
2019-05-18T07:46:43.723Z,2020
2019-05-18T07:47:43.458Z,2050
2019-05-18T07:48:43.709Z,2085
2019-05-18T07:49:43.723Z,2075
2019-05-18T07:50:43.745Z,2085
2019-05-18T07:51:46.642Z,2075
2019-05-18T07:52:43.515Z,2050
2019-05-18T07:53:43.778Z,2055
2019-05-18T07:54:43.790Z,2085
2019-05-18T07:55:43.579Z,2360
2019-05-18T07:56:43.837Z,2695
2019-05-18T07:57:43.592Z,2765
2019-05-18T07:58:43.855Z,2885
2019-05-18T07:59:43.863Z,2860
2019-05-18T08:00:43.873Z,2910
2019-05-18T08:01:43.892Z,2980
2019-05-18T08:02:43.665Z,2960
2019-05-18T08:03:43.926Z,2960
2019-05-18T08:04:46.900Z,2950
2019-05-18T08:05:43.941Z,2895
2019-05-18T08:06:43.958Z,2820
2019-05-18T08:07:44.031Z,2815
2019-05-18T08:08:43.978Z,2820
2019-05-18T08:09:44.025Z,2795
2019-05-18T08:10:46.120Z,2775
2019-05-18T08:11:44.022Z,2640
2019-05-18T08:12:44.050Z,2130
2019-05-18T08:13:44.100Z,1880
2019-05-18T08:14:44.064Z,1905
2019-05-18T08:15:43.890Z,1915
2019-05-18T08:16:44.108Z,1945
2019-05-18T08:17:44.143Z,1935
2019-05-18T08:18:44.136Z,1910
2019-05-18T08:19:44.138Z,1930
2019-05-18T08:20:43.921Z,1950
2019-05-18T08:21:59.351Z,1920
2019-05-18T08:22:43.933Z,1910
2019-05-18T08:23:44.194Z,1915
2019-05-18T08:24:44.207Z,1930
2019-05-18T08:25:44.222Z,1910
2019-05-18T08:26:44.248Z,1885
2019-05-18T08:27:44.276Z,1930
2019-05-18T08:28:44.335Z,1950
2019-05-18T08:29:44.034Z,1980
2019-05-18T08:30:44.291Z,1980
2019-05-18T08:31:44.349Z,1975
2019-05-18T08:32:44.333Z,1960
2019-05-18T08:33:44.342Z,1955
2019-05-18T08:34:44.355Z,1960
2019-05-18T08:35:44.387Z,1975
2019-05-18T08:36:44.352Z,2000
2019-05-18T08:37:44.500Z,2005
2019-05-18T08:38:44.139Z,2005
2019-05-18T08:39:44.387Z,2050
2019-05-18T08:40:44.389Z,2040
2019-05-18T08:41:44.433Z,1995
2019-05-18T08:42:43.955Z,1965
2019-05-18T08:43:44.431Z,1830
2019-05-18T08:44:44.432Z,1060
2019-05-18T08:45:44.855Z,330
2019-05-18T08:46:44.444Z,270
2019-05-18T08:47:44.509Z,265
2019-05-18T08:48:44.462Z,265
2019-05-18T08:49:47.836Z,260
2019-05-18T08:50:44.504Z,255
2019-05-18T08:51:44.542Z,245
2019-05-18T08:52:44.646Z,240
2019-05-18T08:53:44.506Z,240
2019-05-18T08:54:44.508Z,245
2019-05-18T08:55:44.536Z,245
2019-05-18T08:56:44.544Z,245
2019-05-18T08:57:45.314Z,245
2019-05-18T08:58:44.293Z,245
2019-05-18T08:59:46.808Z,245
2019-05-18T09:00:44.530Z,245
2019-05-18T09:01:44.548Z,245
2019-05-18T09:02:44.297Z,240
2019-05-18T09:03:44.537Z,235
2019-05-18T09:04:44.556Z,235
2019-05-18T09:05:44.533Z,235
2019-05-18T09:06:44.552Z,235
2019-05-18T09:07:44.295Z,235
2019-05-18T09:08:44.621Z,235
2019-05-18T09:09:44.544Z,235
2019-05-18T09:10:44.560Z,235
2019-05-18T09:11:44.542Z,245
2019-05-18T09:12:45.242Z,245
2019-05-18T09:13:44.326Z,240
2019-05-18T09:14:44.545Z,235
2019-05-18T09:15:44.554Z,230
2019-05-18T09:16:44.596Z,230
2019-05-18T09:17:45.576Z,235
2019-05-18T09:19:44.540Z,235
2019-05-18T09:20:44.821Z,225
2019-05-18T09:21:45.952Z,230
2019-05-18T09:23:44.548Z,230
2019-05-18T09:24:44.529Z,230
2019-05-18T09:25:44.555Z,225
2019-05-18T09:27:44.370Z,215
2019-05-18T09:28:44.527Z,220
2019-05-18T09:29:44.276Z,220
2019-05-18T09:30:46.097Z,215
2019-05-18T09:31:44.529Z,210
2019-05-18T09:32:44.266Z,215
2019-05-18T09:33:44.575Z,210
2019-05-18T09:34:44.528Z,215
2019-05-18T09:35:44.512Z,210
2019-05-18T09:36:45.961Z,210
2019-05-18T09:37:44.260Z,210
2019-05-18T09:38:44.509Z,210
2019-05-18T09:39:44.563Z,210
2019-05-18T09:40:44.496Z,210
2019-05-18T09:41:44.498Z,210
2019-05-18T09:42:44.499Z,215
2019-05-18T09:44:44.485Z,215
2019-05-18T09:45:44.493Z,215
2019-05-18T09:46:44.491Z,220
2019-05-18T09:47:44.484Z,220
2019-05-18T09:48:44.557Z,215
2019-05-18T09:49:44.486Z,215
2019-05-18T09:50:44.475Z,215
2019-05-18T09:51:44.469Z,215
2019-05-18T09:52:54.815Z,220
2019-05-18T09:53:58.223Z,225
2019-05-18T09:54:44.469Z,225
2019-05-18T09:55:44.481Z,225
2019-05-18T09:56:44.460Z,225
2019-05-18T09:57:44.666Z,225
2019-05-18T09:58:44.470Z,220
2019-05-18T09:59:44.215Z,215
2019-05-18T10:00:48.299Z,215
2019-05-18T10:01:44.462Z,215
2019-05-18T10:02:44.540Z,215
2019-05-18T10:03:44.452Z,220
2019-05-18T10:04:44.493Z,220
2019-05-18T10:05:48.267Z,215
2019-05-18T10:06:44.249Z,215
2019-05-18T10:07:44.465Z,215
2019-05-18T10:08:44.436Z,215
2019-05-18T10:09:48.579Z,220
2019-05-18T10:10:44.431Z,225
2019-05-18T10:11:48.041Z,220
2019-05-18T10:12:57.157Z,225
2019-05-18T10:14:43.959Z,225
2019-05-18T10:15:44.446Z,225
2019-05-18T10:16:44.426Z,225
2019-05-18T10:17:44.428Z,225
2019-05-18T10:18:44.422Z,225
2019-05-18T10:19:44.426Z,225
2019-05-18T10:20:44.428Z,225
2019-05-18T10:21:44.475Z,225
2019-05-18T10:23:16.462Z,230
2019-05-18T10:23:47.524Z,230
2019-05-18T10:24:44.430Z,235
2019-05-18T10:25:44.426Z,240
2019-05-18T10:26:44.162Z,240
2019-05-18T10:27:44.162Z,235
2019-05-18T10:28:44.405Z,235
2019-05-18T10:29:46.597Z,235
2019-05-18T10:30:44.393Z,235
2019-05-18T10:31:44.396Z,235
2019-05-18T10:32:44.397Z,235
2019-05-18T10:33:44.398Z,230
2019-05-18T10:34:44.394Z,225
2019-05-18T10:35:44.395Z,225
2019-05-18T10:36:44.413Z,225
2019-05-18T10:37:44.172Z,230
2019-05-18T10:38:44.402Z,230
2019-05-18T10:39:46.269Z,230
2019-05-18T10:40:44.992Z,230
2019-05-18T10:41:44.382Z,220
2019-05-18T10:42:44.404Z,235
2019-05-18T10:43:46.780Z,245
2019-05-18T10:44:44.434Z,255
2019-05-18T10:46:44.372Z,300
2019-05-18T10:47:44.380Z,305
2019-05-18T10:48:44.368Z,300
2019-05-18T10:49:44.382Z,280
2019-05-18T10:50:44.392Z,275
2019-05-18T10:51:44.375Z,270
2019-05-18T10:52:44.131Z,255
2019-05-18T10:53:44.448Z,250
2019-05-18T10:54:44.401Z,255
2019-05-18T10:55:44.402Z,255
2019-05-18T10:56:44.360Z,235
2019-05-18T10:57:44.131Z,235
2019-05-18T10:58:44.394Z,250
2019-05-18T10:59:44.353Z,245
2019-05-18T11:00:44.360Z,235
2019-05-18T11:01:46.475Z,255
2019-05-18T11:02:44.497Z,260
2019-05-18T11:03:44.350Z,260
2019-05-18T11:04:44.186Z,255
2019-05-18T11:05:44.358Z,235
2019-05-18T11:06:44.342Z,255
2019-05-18T11:07:44.352Z,250
2019-05-18T11:08:47.882Z,245
2019-05-18T11:09:44.351Z,265
2019-05-18T11:10:44.354Z,275
2019-05-18T11:11:44.337Z,270
2019-05-18T11:12:44.349Z,290
2019-05-18T11:13:44.363Z,310
2019-05-18T11:14:44.383Z,325
2019-05-18T11:15:44.423Z,320
2019-05-18T11:16:44.335Z,305
2019-05-18T11:17:44.126Z,295
2019-05-18T11:18:44.337Z,300
2019-05-18T11:19:44.348Z,320
2019-05-18T11:20:45.360Z,365
2019-05-18T11:21:44.342Z,390
2019-05-18T11:22:44.332Z,405
2019-05-18T11:23:55.093Z,410
2019-05-18T11:24:44.326Z,390
2019-05-18T11:25:44.328Z,365
2019-05-18T11:26:44.326Z,340
2019-05-18T11:27:44.344Z,310
2019-05-18T11:28:44.088Z,320
2019-05-18T11:29:44.434Z,320
2019-05-18T11:30:44.328Z,315
2019-05-18T11:31:44.331Z,310
2019-05-18T11:32:44.326Z,320
2019-05-18T11:33:44.517Z,325
2019-05-18T11:34:44.343Z,340
2019-05-18T11:35:44.335Z,340
2019-05-18T11:36:44.348Z,340
2019-05-18T11:37:44.348Z,330
2019-05-18T11:38:44.396Z,320
2019-05-18T11:39:44.329Z,310
2019-05-18T11:40:44.386Z,290
2019-05-18T11:41:44.455Z,285
2019-05-18T11:42:44.138Z,275
2019-05-18T11:43:44.335Z,275
2019-05-18T11:44:44.337Z,285
2019-05-18T11:45:44.088Z,265
2019-05-18T11:46:44.339Z,250
2019-05-18T11:47:44.421Z,240
2019-05-18T11:48:44.327Z,230
2019-05-18T11:49:44.367Z,230
2019-05-18T11:50:44.319Z,230
2019-05-18T11:51:44.101Z,230
2019-05-18T11:52:44.398Z,215
2019-05-18T11:53:56.145Z,220
2019-05-18T11:54:44.379Z,235
2019-05-18T11:55:44.336Z,255
2019-05-18T11:56:44.341Z,280
2019-05-18T11:57:44.088Z,305
2019-05-18T11:58:44.354Z,335
2019-05-18T11:59:44.338Z,350
2019-05-18T12:00:44.424Z,350
2019-05-18T12:01:44.354Z,325
2019-05-18T12:02:43.885Z,285
2019-05-18T12:03:44.384Z,260
2019-05-18T12:04:44.347Z,245
2019-05-18T12:05:44.335Z,220
2019-05-18T12:06:44.107Z,215
2019-05-18T12:07:44.334Z,215
2019-05-18T12:08:44.330Z,215
2019-05-18T12:09:44.401Z,220
2019-05-18T12:10:44.411Z,225
2019-05-18T12:11:44.135Z,225
2019-05-18T12:12:44.424Z,230
2019-05-18T12:13:44.333Z,240
2019-05-18T12:14:44.339Z,275
2019-05-18T12:15:44.340Z,310
2019-05-18T12:16:44.084Z,350
2019-05-18T12:17:44.366Z,375
2019-05-18T12:18:44.328Z,380
2019-05-18T12:19:44.334Z,365
2019-05-18T12:20:44.375Z,340
2019-05-18T12:21:44.356Z,310
2019-05-18T12:22:44.096Z,280
2019-05-18T12:23:44.226Z,265
2019-05-18T12:24:44.378Z,250
2019-05-18T12:25:44.337Z,235
2019-05-18T12:26:44.351Z,220
2019-05-18T12:27:44.861Z,210
2019-05-18T12:28:44.326Z,205
2019-05-18T12:29:44.336Z,200
2019-05-18T12:30:45.575Z,205
2019-05-18T12:31:44.335Z,200
2019-05-18T12:32:44.117Z,210
2019-05-18T12:33:44.099Z,215
2019-05-18T12:34:47.949Z,230
2019-05-18T12:35:44.332Z,235
2019-05-18T12:36:44.375Z,250
2019-05-18T12:37:44.347Z,260
2019-05-18T12:38:44.329Z,265
2019-05-18T12:39:44.335Z,255
2019-05-18T12:40:44.136Z,250
2019-05-18T12:41:44.347Z,250
2019-05-18T12:42:44.362Z,240
2019-05-18T12:43:44.373Z,220
2019-05-18T12:44:44.223Z,205
2019-05-18T12:45:44.374Z,195
2019-05-18T12:46:44.594Z,180
2019-05-18T12:47:44.341Z,170
2019-05-18T12:48:44.354Z,170
2019-05-18T12:49:44.344Z,175
2019-05-18T12:50:44.386Z,185
2019-05-18T12:51:44.338Z,190
2019-05-18T12:52:44.335Z,190
2019-05-18T12:53:44.347Z,195
2019-05-18T12:54:56.076Z,200
2019-05-18T12:55:44.349Z,205
2019-05-18T12:56:43.668Z,210
2019-05-18T12:57:44.339Z,215
2019-05-18T12:58:47.086Z,215
2019-05-18T12:59:44.352Z,210
2019-05-18T13:00:44.357Z,205
2019-05-18T13:01:44.093Z,210
2019-05-18T13:02:44.343Z,210
2019-05-18T13:03:44.334Z,205
2019-05-18T13:04:46.650Z,195
2019-05-18T13:05:44.179Z,195
2019-05-18T13:06:44.363Z,205
2019-05-18T13:07:44.090Z,215
2019-05-18T13:08:44.333Z,235
2019-05-18T13:09:44.379Z,235
2019-05-18T13:10:44.412Z,215
2019-05-18T13:11:44.338Z,215
2019-05-18T13:12:44.098Z,215
2019-05-18T13:13:44.337Z,220
2019-05-18T13:14:44.334Z,210
2019-05-18T13:15:44.377Z,205
2019-05-18T13:16:44.328Z,205
2019-05-18T13:17:44.106Z,210
2019-05-18T13:18:44.344Z,215
2019-05-18T13:19:44.334Z,240
2019-05-18T13:20:44.339Z,250
2019-05-18T13:21:44.334Z,250
2019-05-18T13:22:44.346Z,260
2019-05-18T13:23:44.099Z,260
2019-05-18T13:24:56.981Z,260
2019-05-18T13:25:44.341Z,255
2019-05-18T13:26:44.118Z,245
2019-05-18T13:27:49.182Z,240
2019-05-18T13:28:44.324Z,230
2019-05-18T13:29:44.341Z,220
2019-05-18T13:30:44.327Z,210
2019-05-18T13:31:44.331Z,210
2019-05-18T13:32:44.411Z,200
2019-05-18T13:33:44.331Z,195
2019-05-18T13:34:44.353Z,195
2019-05-18T13:35:47.962Z,195
2019-05-18T13:36:44.331Z,195
2019-05-18T13:37:44.386Z,195
2019-05-18T13:38:44.324Z,195
2019-05-18T13:39:44.328Z,195
2019-05-18T13:40:44.327Z,195
2019-05-18T13:41:44.370Z,185
2019-05-18T13:42:44.337Z,180
2019-05-18T13:43:44.330Z,175
2019-05-18T13:44:47.594Z,175
2019-05-18T13:45:44.334Z,175
2019-05-18T13:46:44.332Z,175
2019-05-18T13:47:44.086Z,180
2019-05-18T13:48:44.326Z,185
2019-05-18T13:49:44.329Z,190
2019-05-18T13:50:47.086Z,195
2019-05-18T13:51:44.325Z,200
2019-05-18T13:52:44.416Z,205
2019-05-18T13:53:44.334Z,205
2019-05-18T13:54:44.377Z,205
2019-05-18T13:55:44.322Z,210
2019-05-18T13:56:47.082Z,205
2019-05-18T13:57:44.346Z,195
2019-05-18T13:58:44.349Z,190
2019-05-18T13:59:44.323Z,185
2019-05-18T14:00:44.352Z,180
2019-05-18T14:01:44.334Z,180
2019-05-18T14:02:44.331Z,180
2019-05-18T14:03:44.334Z,175
2019-05-18T14:04:44.329Z,180